| time (UTC) | temp F | wind direction | speed knots | gust knots | rain 1hr in | rain 24hr in | rain mn in | humidity % | barometer mb |
| 20260906222717 | 90 | 38 | 0.9 | 0.9 | 0.00 | 0.00 | 0.00 | 34 | 1018.2 |
| 20260906222216 | 91 | 39 | 0.0 | 0.0 | 0.00 | 0.00 | 0.00 | 36 | 1018.3 |
| 20260906221714 | 92 | 69 | 0.9 | 0.9 | 0.00 | 0.00 | 0.00 | 35 | 1018.2 |
| 20260906221209 | 92 | 35 | 0.0 | 0.9 | 0.00 | 0.00 | 0.00 | 35 | 1018.4 |
| 20260906220704 | 92 | 40 | 0.9 | 0.9 | 0.00 | 0.00 | 0.00 | 35 | 1018.5 |
| 20260906220159 | 93 | 121 | 2.6 | 6.1 | 0.00 | 0.00 | 0.00 | 32 | 1018.5 |
| 20260906215658 | 92 | 36 | 0.0 | 0.9 | 0.00 | 0.00 | 0.00 | 39 | 1018.5 |
| 20260906215157 | 92 | 44 | 1.7 | 2.6 | 0.00 | 0.00 | 0.00 | 34 | 1018.5 |
| 20260906214655 | 92 | 352 | 2.6 | 4.3 | 0.00 | 0.00 | 0.00 | 34 | 1018.5 |
| 20260906214150 | 92 | 15 | 2.6 | 2.6 | 0.00 | 0.00 | 0.00 | 33 | 1018.8 |
| 20260906213650 | 91 | 31 | 0.9 | 1.7 | 0.00 | 0.00 | 0.00 | 33 | 1019.0 |
| 20260906213144 | 92 | 6 | 1.7 | 1.7 | 0.00 | 0.00 | 0.00 | 33 | 1019.1 |
| 20260906212642 | 92 | 36 | 0.9 | 0.9 | 0.00 | 0.00 | 0.00 | 33 | 1018.9 |
| 20260906212137 | 93 | 47 | 3.5 | 4.3 | 0.00 | 0.00 | 0.00 | 32 | 1019.1 |
| 20260906211637 | 92 | 40 | 0.9 | 0.9 | 0.00 | 0.00 | 0.00 | 34 | 1019.1 |
| 20260906211132 | 92 | 8 | 1.7 | 1.7 | 0.00 | 0.00 | 0.00 | 33 | 1019.1 |
| 20260906210628 | 91 | 43 | 0.9 | 1.7 | 0.00 | 0.00 | 0.00 | 36 | 1019.2 |
| 20260906210123 | 90 | 33 | 1.7 | 1.7 | 0.00 | 0.00 | 0.00 | 35 | 1019.6 |
| 20260906205618 | 92 | 89 | 1.7 | 1.7 | 0.00 | 0.00 | 0.00 | 32 | 1019.6 |
| 20260906205114 | 91 | 41 | 0.0 | 0.0 | 0.00 | 0.00 | 0.00 | 37 | 1019.6 |
| 20260906204613 | 91 | 33 | 0.9 | 1.7 | 0.00 | 0.00 | 0.00 | 34 | 1019.7 |
| 20260906204108 | 91 | 39 | 0.9 | 1.7 | 0.00 | 0.00 | 0.00 | 36 | 1019.9 |
| 20260906203608 | 91 | 46 | 1.7 | 1.7 | 0.00 | 0.00 | 0.00 | 34 | 1019.8 |
| 20260906203103 | 90 | 141 | 3.5 | 4.3 | 0.00 | 0.00 | 0.00 | 34 | 1019.7 |
| 20260906202559 | 91 | 36 | 0.0 | 0.0 | 0.00 | 0.00 | 0.00 | 37 | 1019.9 |
| 20260906202054 | 91 | 91 | 2.6 | 2.6 | 0.00 | 0.00 | 0.00 | 35 | 1020.1 |
| 20260906201554 | 90 | 40 | 0.0 | 0.9 | 0.00 | 0.00 | 0.00 | 37 | 1019.9 |
| 20260906201053 | 88 | 136 | 3.5 | 4.3 | 0.00 | 0.00 | 0.00 | 36 | 1020.1 |
| 20260906200549 | 89 | 72 | 1.7 | 1.7 | 0.00 | 0.00 | 0.00 | 35 | 1020.2 |
| 20260906200045 | 89 | 321 | 0.9 | 1.7 | 0.00 | 0.00 | 0.00 | 36 | 1020.2 |
| 20260906195540 | 89 | 44 | 0.9 | 1.7 | 0.00 | 0.00 | 0.00 | 37 | 1020.2 |
| 20260906195037 | 88 | 63 | 1.7 | 1.7 | 0.00 | 0.00 | 0.00 | 37 | 1020.4 |
| 20260906194532 | 88 | 34 | 0.9 | 1.7 | 0.00 | 0.00 | 0.00 | 37 | 1020.4 |
| 20260906194027 | 88 | 37 | 0.0 | 0.0 | 0.00 | 0.00 | 0.00 | 39 | 1020.4 |
| 20260906193522 | 87 | 37 | 0.9 | 0.9 | 0.00 | 0.00 | 0.00 | 39 | 1020.5 |
| 20260906193017 | 86 | 55 | 2.6 | 2.6 | 0.00 | 0.00 | 0.00 | 38 | 1020.6 |
| 20260906192513 | 89 | 91 | 2.6 | 4.3 | 0.00 | 0.00 | 0.00 | 37 | 1020.8 |
| 20260906192012 | 89 | 40 | 0.0 | 0.0 | 0.00 | 0.00 | 0.00 | 39 | 1020.9 |
| 20260906191507 | 86 | 13 | 1.7 | 1.7 | 0.00 | 0.00 | 0.00 | 39 | 1020.9 |
| 20260906191006 | 88 | 34 | 0.0 | 0.0 | 0.00 | 0.00 | 0.00 | 39 | 1020.9 |
| 20260906190505 | 87 | 16 | 0.0 | 0.9 | 0.00 | 0.00 | 0.00 | 40 | 1020.9 |
| 20260906190000 | 87 | 37 | 0.0 | 0.0 | 0.00 | 0.00 | 0.00 | 41 | 1021.0 |
| 20260906185459 | 87 | 54 | 0.0 | 0.9 | 0.00 | 0.00 | 0.00 | 39 | 1021.4 |
| 20260906184958 | 87 | 29 | 0.9 | 2.6 | 0.00 | 0.00 | 0.00 | 39 | 1021.4 |
| 20260906184454 | 87 | 40 | 0.0 | 0.9 | 0.00 | 0.00 | 0.00 | 41 | 1021.4 |
| 20260906183949 | 86 | 121 | 0.9 | 2.6 | 0.00 | 0.00 | 0.00 | 40 | 1021.5 |
| 20260906183445 | 86 | 55 | 0.9 | 0.9 | 0.00 | 0.00 | 0.00 | 41 | 1021.7 |
| 20260906182940 | 86 | 73 | 2.6 | 2.6 | 0.00 | 0.00 | 0.00 | 39 | 1021.7 |
| 20260906182436 | 86 | 42 | 0.9 | 1.7 | 0.00 | 0.00 | 0.00 | 40 | 1021.8 |
| 20260906181931 | 85 | 32 | 0.9 | 0.9 | 0.00 | 0.00 | 0.00 | 42 | 1021.9 |
| 20260906181427 | 85 | 37 | 0.0 | 0.0 | 0.00 | 0.00 | 0.00 | 44 | 1021.8 |
| 20260906180923 | 86 | 22 | 0.0 | 0.0 | 0.00 | 0.00 | 0.00 | 44 | 1022.1 |
| 20260906180418 | 85 | 36 | 0.0 | 0.0 | 0.00 | 0.00 | 0.00 | 45 | 1022.2 |
| 20260906175915 | 84 | 43 | 0.9 | 1.7 | 0.00 | 0.00 | 0.00 | 47 | 1022.4 |
| 20260906175410 | 84 | 39 | 0.0 | 0.9 | 0.00 | 0.00 | 0.00 | 45 | 1022.2 |
| 20260906174909 | 84 | 48 | 1.7 | 1.7 | 0.00 | 0.00 | 0.00 | 44 | 1022.3 |
| 20260906174408 | 82 | 38 | 0.0 | 0.0 | 0.00 | 0.00 | 0.00 | 47 | 1022.5 |
| 20260906173903 | 82 | 72 | 1.7 | 1.7 | 0.00 | 0.00 | 0.00 | 46 | 1022.7 |
| 20260906173359 | 84 | 38 | 0.9 | 0.9 | 0.00 | 0.00 | 0.00 | 48 | 1022.7 |
| 20260906172858 | 84 | 45 | 0.0 | 0.9 | 0.00 | 0.00 | 0.00 | 46 | 1023.0 |
| 20260906172354 | 82 | 47 | 0.0 | 0.9 | 0.00 | 0.00 | 0.00 | 46 | 1023.0 |
| 20260906171849 | 83 | 41 | 0.0 | 0.0 | 0.00 | 0.00 | 0.00 | 50 | 1023.1 |
| 20260906171344 | 83 | 38 | 0.0 | 0.0 | 0.00 | 0.00 | 0.00 | 50 | 1023.0 |
| 20260906170839 | 82 | 52 | 0.9 | 1.7 | 0.00 | 0.00 | 0.00 | 47 | 1023.2 |
| 20260906170335 | 80 | 46 | 0.0 | 0.0 | 0.00 | 0.00 | 0.00 | 51 | 1023.2 |
| 20260906165832 | 78 | 18 | 0.9 | 0.9 | 0.00 | 0.00 | 0.00 | 53 | 1023.5 |
| 20260906165330 | 81 | 38 | 0.0 | 0.0 | 0.00 | 0.00 | 0.00 | 50 | 1023.5 |
| 20260906164826 | 79 | 47 | 0.9 | 0.9 | 0.00 | 0.00 | 0.00 | 51 | 1023.5 |
| 20260906164325 | 79 | 57 | 1.7 | 1.7 | 0.00 | 0.00 | 0.00 | 52 | 1023.6 |
| 20260906163821 | 79 | 58 | 0.0 | 0.9 | 0.00 | 0.00 | 0.00 | 52 | 1023.5 |
| 20260906163317 | 78 | 33 | 0.0 | 0.9 | 0.00 | 0.00 | 0.00 | 54 | 1023.5 |
| 20260906162814 | 80 | 30 | 0.9 | 0.9 | 0.00 | 0.00 | 0.00 | 53 | 1023.6 |
| 20260906162314 | 77 | 43 | 0.0 | 0.0 | 0.00 | 0.00 | 0.00 | 56 | 1023.4 |
| 20260906161809 | 77 | 40 | 0.0 | 0.0 | 0.00 | 0.00 | 0.00 | 56 | 1023.5 |
| 20260906161308 | 77 | 109 | 1.7 | 2.6 | 0.00 | 0.00 | 0.00 | 55 | 1023.5 |
| 20260906160807 | 76 | 37 | 1.7 | 1.7 | 0.00 | 0.00 | 0.00 | 57 | 1023.5 |
| 20260906160301 | 77 | 65 | 0.0 | 0.9 | 0.00 | 0.00 | 0.00 | 57 | 1023.4 |
| 20260906155759 | 77 | 52 | 0.0 | 0.0 | 0.00 | 0.00 | 0.00 | 55 | 1023.4 |
| 20260906155254 | 76 | 33 | 0.0 | 0.9 | 0.00 | 0.00 | 0.00 | 57 | 1023.7 |
| 20260906154749 | 75 | 63 | 2.6 | 2.6 | 0.00 | 0.00 | 0.00 | 60 | 1023.5 |
| 20260906154244 | 75 | 71 | 2.6 | 2.6 | 0.00 | 0.00 | 0.00 | 58 | 1023.4 |
| 20260906153743 | 75 | 36 | 0.0 | 0.9 | 0.00 | 0.00 | 0.00 | 57 | 1023.4 |
| 20260906153237 | 75 | 56 | 0.0 | 0.0 | 0.00 | 0.00 | 0.00 | 58 | 1023.4 |
| 20260906152733 | 75 | 44 | 0.0 | 0.9 | 0.00 | 0.00 | 0.00 | 58 | 1023.5 |
| 20260906152227 | 75 | 39 | 0.0 | 0.0 | 0.00 | 0.00 | 0.00 | 59 | 1023.6 |
| 20260906151727 | 75 | 47 | 0.0 | 0.0 | 0.00 | 0.00 | 0.00 | 60 | 1023.5 |
| 20260906151222 | 74 | 44 | 0.0 | 0.0 | 0.00 | 0.00 | 0.00 | 59 | 1023.4 |
| 20260906150718 | 73 | 38 | 0.0 | 0.0 | 0.00 | 0.00 | 0.00 | 61 | 1023.6 |
| 20260906150213 | 71 | 39 | 0.0 | 0.0 | 0.00 | 0.00 | 0.00 | 65 | 1023.6 |
| 20260906145712 | 71 | 44 | 0.0 | 0.0 | 0.00 | 0.00 | 0.00 | 65 | 1023.6 |
| 20260906145211 | 69 | 39 | 0.0 | 0.0 | 0.00 | 0.00 | 0.00 | 66 | 1023.6 |
| 20260906144706 | 69 | 39 | 0.0 | 0.0 | 0.00 | 0.00 | 0.00 | 68 | 1023.6 |
| 20260906144201 | 69 | 56 | 0.9 | 0.9 | 0.00 | 0.00 | 0.00 | 66 | 1023.6 |
| 20260906143701 | 69 | 42 | 0.0 | 0.0 | 0.00 | 0.00 | 0.00 | 67 | 1023.8 |
| 20260906143158 | 69 | 48 | 0.0 | 0.0 | 0.00 | 0.00 | 0.00 | 68 | 1023.6 |
| 20260906142657 | 68 | 61 | 0.0 | 0.0 | 0.00 | 0.00 | 0.00 | 69 | 1023.5 |
| 20260906142153 | 67 | 39 | 0.0 | 0.0 | 0.00 | 0.00 | 0.00 | 69 | 1023.6 |
| 20260906141651 | 67 | 38 | 0.0 | 0.0 | 0.00 | 0.00 | 0.00 | 71 | 1023.6 |
| 20260906141147 | 66 | 14 | 0.9 | 0.9 | 0.00 | 0.00 | 0.00 | 72 | 1023.7 |
| 20260906140646 | 66 | 38 | 0.0 | 0.0 | 0.00 | 0.00 | 0.00 | 74 | 1023.5 |
| 20260906140141 | 65 | 40 | 0.0 | 0.0 | 0.00 | 0.00 | 0.00 | 75 | 1023.6 |
| 20260906135638 | 65 | 47 | 0.0 | 0.0 | 0.00 | 0.00 | 0.00 | 76 | 1023.6 |
| 20260906135134 | 64 | 35 | 0.0 | 0.0 | 0.00 | 0.00 | 0.00 | 77 | 1023.7 |
| 20260906134629 | 63 | 37 | 0.0 | 0.9 | 0.00 | 0.00 | 0.00 | 79 | 1023.8 |
| 20260906134124 | 62 | 40 | 0.0 | 0.0 | 0.00 | 0.00 | 0.00 | 82 | 1023.5 |
| 20260906133620 | 62 | 40 | 0.0 | 0.0 | 0.00 | 0.00 | 0.00 | 83 | 1023.7 |
| 20260906133115 | 60 | 44 | 0.0 | 0.0 | 0.00 | 0.00 | 0.00 | 85 | 1023.6 |
| 20260906132610 | 60 | 39 | 0.0 | 0.0 | 0.00 | 0.00 | 0.00 | 86 | 1023.6 |
| 20260906132106 | 60 | 41 | 0.0 | 0.0 | 0.00 | 0.00 | 0.00 | 88 | 1023.5 |
| 20260906131601 | 59 | 39 | 0.0 | 0.9 | 0.00 | 0.00 | 0.00 | 89 | 1023.4 |
| 20260906131056 | 59 | 40 | 0.0 | 0.0 | 0.00 | 0.00 | 0.00 | 89 | 1023.1 |
| 20260906130556 | 59 | 41 | 0.0 | 0.0 | 0.00 | 0.00 | 0.00 | 89 | 1023.2 |
| 20260906130051 | 59 | 41 | 0.0 | 0.0 | 0.00 | 0.00 | 0.00 | 89 | 1023.1 |
| 20260906125549 | 59 | 41 | 0.0 | 0.0 | 0.00 | 0.00 | 0.00 | 89 | 1023.1 |
| 20260906125048 | 59 | 38 | 0.0 | 0.0 | 0.00 | 0.00 | 0.00 | 89 | 1023.0 |
| 20260906124544 | 59 | 36 | 0.0 | 0.0 | 0.00 | 0.00 | 0.00 | 89 | 1023.2 |
| 20260906124039 | 59 | 39 | 0.0 | 0.0 | 0.00 | 0.00 | 0.00 | 89 | 1022.9 |
| 20260906123538 | 59 | 39 | 0.0 | 0.0 | 0.00 | 0.00 | 0.00 | 88 | 1023.1 |
| 20260906123033 | 59 | 37 | 0.0 | 0.0 | 0.00 | 0.00 | 0.00 | 88 | 1022.9 |
| 20260906122527 | 59 | 39 | 0.0 | 0.0 | 0.00 | 0.00 | 0.00 | 87 | 1023.1 |
| 20260906122023 | 60 | 39 | 0.0 | 0.0 | 0.00 | 0.00 | 0.00 | 87 | 1023.1 |
| 20260906121519 | 60 | 40 | 0.0 | 0.0 | 0.00 | 0.00 | 0.00 | 86 | 1023.0 |
| 20260906121015 | 61 | 40 | 0.0 | 0.0 | 0.00 | 0.00 | 0.00 | 84 | 1023.1 |
| 20260906120510 | 61 | 40 | 0.0 | 0.0 | 0.00 | 0.00 | 0.00 | 84 | 1023.1 |
| 20260906120007 | 62 | 41 | 0.0 | 0.0 | 0.00 | 0.00 | 0.00 | 83 | 1023.1 |
| 20260906115501 | 62 | 39 | 0.0 | 0.0 | 0.00 | 0.00 | 0.00 | 82 | 1023.1 |
| 20260906114956 | 62 | 39 | 0.0 | 0.0 | 0.00 | 0.00 | 0.00 | 81 | 1023.1 |
| 20260906114450 | 63 | 34 | 0.0 | 0.0 | 0.00 | 0.00 | 0.00 | 81 | 1023.1 |
| 20260906113947 | 63 | 38 | 0.0 | 0.0 | 0.00 | 0.00 | 0.00 | 80 | 1023.1 |
| 20260906113445 | 63 | 40 | 0.0 | 0.0 | 0.00 | 0.00 | 0.00 | 78 | 1023.1 |
| 20260906112941 | 63 | 37 | 0.0 | 0.0 | 0.00 | 0.00 | 0.00 | 77 | 1023.2 |
| 20260906112436 | 63 | 36 | 0.9 | 0.9 | 0.00 | 0.00 | 0.00 | 76 | 1023.0 |
| 20260906111932 | 64 | 36 | 0.0 | 0.0 | 0.00 | 0.00 | 0.00 | 75 | 1023.1 |
| 20260906111431 | 64 | 39 | 0.0 | 0.0 | 0.00 | 0.00 | 0.00 | 73 | 1022.9 |
| 20260906110926 | 64 | 15 | 2.6 | 2.6 | 0.00 | 0.00 | 0.00 | 71 | 1022.7 |
| 20260906110422 | 65 | 27 | 0.9 | 0.9 | 0.00 | 0.00 | 0.00 | 69 | 1022.9 |
| 20260906105920 | 65 | 38 | 0.0 | 0.0 | 0.00 | 0.00 | 0.00 | 67 | 1022.9 |
| 20260906105417 | 65 | 35 | 0.9 | 0.9 | 0.00 | 0.00 | 0.00 | 67 | 1022.5 |
| 20260906104912 | 65 | 33 | 1.7 | 1.7 | 0.00 | 0.00 | 0.00 | 67 | 1022.5 |
| 20260906104410 | 64 | 39 | 0.9 | 0.9 | 0.00 | 0.00 | 0.00 | 66 | 1022.5 |
| 20260906103910 | 64 | 38 | 0.0 | 0.0 | 0.00 | 0.00 | 0.00 | 66 | 1022.8 |
| 20260906103408 | 64 | 42 | 0.0 | 0.0 | 0.00 | 0.00 | 0.00 | 65 | 1022.7 |
| 20260906102904 | 65 | 43 | 0.0 | 0.0 | 0.00 | 0.00 | 0.00 | 64 | 1022.5 |
| 20260906102403 | 65 | 346 | 0.0 | 0.9 | 0.00 | 0.00 | 0.00 | 64 | 1022.4 |
| 20260906101858 | 63 | 32 | 0.0 | 0.0 | 0.00 | 0.00 | 0.00 | 65 | 1022.5 |
| 20260906101353 | 63 | 31 | 0.0 | 0.0 | 0.00 | 0.00 | 0.00 | 66 | 1022.4 |
| 20260906100849 | 63 | 38 | 0.0 | 0.0 | 0.00 | 0.00 | 0.00 | 65 | 1022.3 |
| 20260906100348 | 63 | 32 | 0.0 | 0.9 | 0.00 | 0.00 | 0.00 | 66 | 1022.3 |
| 20260906095843 | 63 | 38 | 0.0 | 0.0 | 0.00 | 0.00 | 0.00 | 66 | 1022.4 |
| 20260906095338 | 63 | 37 | 0.0 | 0.0 | 0.00 | 0.00 | 0.00 | 68 | 1022.4 |
| 20260906094838 | 63 | 38 | 0.0 | 0.0 | 0.00 | 0.00 | 0.00 | 66 | 1022.7 |
| 20260906094333 | 63 | 38 | 0.0 | 0.0 | 0.00 | 0.00 | 0.00 | 67 | 1022.5 |
| 20260906093829 | 63 | 39 | 0.0 | 0.0 | 0.00 | 0.00 | 0.00 | 67 | 1022.5 |
| 20260906093325 | 63 | 38 | 0.0 | 0.0 | 0.00 | 0.00 | 0.00 | 69 | 1022.7 |
| 20260906092820 | 63 | 37 | 0.0 | 0.0 | 0.00 | 0.00 | 0.00 | 68 | 1022.5 |
| 20260906092320 | 63 | 39 | 0.0 | 0.0 | 0.00 | 0.00 | 0.00 | 67 | 1022.4 |
| 20260906091815 | 63 | 37 | 0.0 | 0.0 | 0.00 | 0.00 | 0.00 | 67 | 1022.5 |
| 20260906091311 | 64 | 39 | 0.0 | 0.0 | 0.00 | 0.00 | 0.00 | 66 | 1022.3 |
| 20260906090808 | 64 | 39 | 0.0 | 0.0 | 0.00 | 0.00 | 0.00 | 65 | 1022.2 |
| 20260906090306 | 64 | 33 | 0.0 | 0.0 | 0.00 | 0.00 | 0.00 | 64 | 1022.1 |
| 20260906085801 | 64 | 37 | 0.0 | 0.0 | 0.00 | 0.00 | 0.00 | 64 | 1022.4 |
| 20260906085259 | 65 | 37 | 0.0 | 0.0 | 0.00 | 0.00 | 0.00 | 62 | 1022.3 |
| 20260906084754 | 65 | 42 | 0.0 | 0.0 | 0.00 | 0.00 | 0.00 | 62 | 1022.1 |
| 20260906084248 | 66 | 37 | 0.0 | 0.0 | 0.00 | 0.00 | 0.00 | 61 | 1022.1 |
| 20260906083743 | 65 | 38 | 0.0 | 0.0 | 0.00 | 0.00 | 0.00 | 62 | 1022.1 |
| 20260906083239 | 66 | 38 | 0.0 | 0.0 | 0.00 | 0.00 | 0.00 | 61 | 1021.9 |
| 20260906082733 | 65 | 34 | 0.0 | 0.0 | 0.00 | 0.00 | 0.00 | 61 | 1022.1 |
| 20260906082229 | 66 | 40 | 0.0 | 0.0 | 0.00 | 0.00 | 0.00 | 60 | 1022.1 |
| 20260906081725 | 67 | 40 | 0.0 | 0.0 | 0.00 | 0.00 | 0.00 | 59 | 1022.3 |
| 20260906081219 | 68 | 40 | 0.0 | 0.0 | 0.00 | 0.00 | 0.00 | 58 | 1022.3 |
| 20260906080716 | 68 | 50 | 0.9 | 0.9 | 0.00 | 0.00 | 0.00 | 56 | 1022.1 |
| 20260906080212 | 69 | 46 | 0.0 | 0.0 | 0.00 | 0.00 | 0.00 | 56 | 1021.9 |
| 20260906075706 | 69 | 41 | 0.0 | 0.0 | 0.00 | 0.00 | 0.00 | 54 | 1022.1 |
| 20260906075200 | 70 | 39 | 0.0 | 0.9 | 0.00 | 0.00 | 0.00 | 52 | 1021.9 |
| 20260906074655 | 71 | 40 | 0.0 | 0.0 | 0.00 | 0.00 | 0.00 | 50 | 1021.9 |
| 20260906074149 | 72 | 37 | 0.0 | 0.9 | 0.00 | 0.00 | 0.00 | 49 | 1021.7 |
| 20260906073644 | 72 | 15 | 0.9 | 0.9 | 0.00 | 0.00 | 0.00 | 50 | 1021.8 |
| 20260906073140 | 71 | 19 | 0.9 | 0.9 | 0.00 | 0.00 | 0.00 | 50 | 1021.9 |
| 20260906072635 | 71 | 25 | 1.7 | 1.7 | 0.00 | 0.00 | 0.00 | 50 | 1021.7 |
| 20260906072130 | 71 | 16 | 0.9 | 1.7 | 0.00 | 0.00 | 0.00 | 50 | 1021.8 |
| 20260906071626 | 71 | 16 | 1.7 | 1.7 | 0.00 | 0.00 | 0.00 | 49 | 1021.7 |
| 20260906071121 | 71 | 25 | 0.9 | 0.9 | 0.00 | 0.00 | 0.00 | 49 | 1021.9 |
| 20260906070618 | 71 | 28 | 0.9 | 1.7 | 0.00 | 0.00 | 0.00 | 50 | 1021.6 |
| 20260906070113 | 70 | 33 | 0.0 | 0.0 | 0.00 | 0.00 | 0.00 | 52 | 1021.6 |
| 20260906065612 | 68 | 28 | 1.7 | 1.7 | 0.00 | 0.00 | 0.00 | 56 | 1021.7 |
| 20260906065108 | 67 | 29 | 0.0 | 0.0 | 0.00 | 0.00 | 0.00 | 60 | 1021.7 |
| 20260906064604 | 67 | 39 | 0.0 | 0.0 | 0.00 | 0.00 | 0.00 | 61 | 1021.9 |
| 20260906064058 | 67 | 36 | 0.0 | 0.9 | 0.00 | 0.00 | 0.00 | 60 | 1021.8 |
| 20260906063554 | 67 | 38 | 0.0 | 0.0 | 0.00 | 0.00 | 0.00 | 61 | 1022.2 |
| 20260906063049 | 67 | 38 | 0.0 | 0.0 | 0.00 | 0.00 | 0.00 | 61 | 1022.1 |
| 20260906062545 | 68 | 40 | 0.0 | 0.0 | 0.00 | 0.00 | 0.00 | 59 | 1022.2 |
| 20260906062038 | 68 | 40 | 0.0 | 0.0 | 0.00 | 0.00 | 0.00 | 57 | 1022.3 |
| 20260906061535 | 69 | 40 | 0.0 | 0.0 | 0.00 | 0.00 | 0.00 | 56 | 1022.3 |
| 20260906061034 | 70 | 40 | 0.0 | 0.0 | 0.00 | 0.00 | 0.00 | 55 | 1022.2 |
| 20260906060531 | 71 | 40 | 0.0 | 0.0 | 0.00 | 0.00 | 0.00 | 53 | 1022.4 |
| 20260906060028 | 72 | 40 | 0.0 | 0.0 | 0.00 | 0.00 | 0.00 | 51 | 1022.4 |
| 20260906055523 | 73 | 46 | 0.0 | 0.0 | 0.00 | 0.00 | 0.00 | 50 | 1022.5 |
| 20260906055018 | 73 | 39 | 0.0 | 0.0 | 0.00 | 0.00 | 0.00 | 48 | 1022.8 |
| 20260906054518 | 74 | 15 | 2.6 | 2.6 | 0.00 | 0.00 | 0.00 | 48 | 1022.4 |
| 20260906054014 | 74 | 27 | 1.7 | 1.7 | 0.00 | 0.00 | 0.00 | 47 | 1022.5 |
| 20260906053510 | 75 | 313 | 1.7 | 4.3 | 0.00 | 0.00 | 0.00 | 46 | 1022.4 |
| 20260906053005 | 75 | 26 | 1.7 | 1.7 | 0.00 | 0.00 | 0.00 | 46 | 1022.5 |
| 20260906052501 | 75 | 348 | 4.3 | 7.0 | 0.00 | 0.00 | 0.00 | 46 | 1022.7 |
| 20260906051958 | 75 | 21 | 0.9 | 1.7 | 0.00 | 0.00 | 0.00 | 46 | 1022.5 |
| 20260906051453 | 75 | 36 | 1.7 | 1.7 | 0.00 | 0.00 | 0.00 | 46 | 1022.7 |
| 20260906050949 | 75 | 37 | 0.0 | 0.0 | 0.00 | 0.00 | 0.00 | 45 | 1022.7 |
| 20260906050448 | 76 | 70 | 0.0 | 0.9 | 0.00 | 0.00 | 0.00 | 45 | 1022.7 |
| 20260906045948 | 76 | 10 | 1.7 | 5.2 | 0.00 | 0.00 | 0.00 | 43 | 1022.8 |
| 20260906045447 | 77 | 176 | 0.9 | 1.7 | 0.00 | 0.00 | 0.00 | 42 | 1022.8 |
| 20260906044943 | 77 | 352 | 0.0 | 1.7 | 0.00 | 0.00 | 0.00 | 41 | 1022.9 |
| 20260906044438 | 76 | 328 | 0.0 | 0.9 | 0.00 | 0.00 | 0.00 | 40 | 1022.8 |
| 20260906043933 | 74 | 43 | 0.0 | 0.9 | 0.00 | 0.00 | 0.00 | 42 | 1023.2 |
| 20260906043429 | 73 | 40 | 0.0 | 0.0 | 0.00 | 0.00 | 0.00 | 43 | 1023.1 |
| 20260906042925 | 73 | 40 | 0.0 | 0.0 | 0.00 | 0.00 | 0.00 | 45 | 1023.1 |
| 20260906042424 | 73 | 43 | 0.0 | 0.0 | 0.00 | 0.00 | 0.00 | 46 | 1022.9 |
| 20260906041919 | 72 | 38 | 0.0 | 0.0 | 0.00 | 0.00 | 0.00 | 47 | 1022.7 |
| 20260906041415 | 72 | 39 | 0.0 | 0.0 | 0.00 | 0.00 | 0.00 | 50 | 1022.5 |
| 20260906040915 | 72 | 40 | 0.0 | 0.9 | 0.00 | 0.00 | 0.00 | 48 | 1022.2 |
| 20260906040410 | 71 | 40 | 0.0 | 0.0 | 0.00 | 0.00 | 0.00 | 48 | 1021.9 |
| 20260906035905 | 70 | 39 | 0.0 | 0.0 | 0.00 | 0.00 | 0.00 | 50 | 1021.8 |
| 20260906035401 | 70 | 35 | 0.0 | 0.0 | 0.00 | 0.00 | 0.00 | 49 | 1021.8 |
| 20260906034856 | 71 | 42 | 0.0 | 0.0 | 0.00 | 0.00 | 0.00 | 48 | 1021.7 |
| 20260906034356 | 71 | 44 | 0.0 | 0.0 | 0.00 | 0.00 | 0.00 | 47 | 1021.5 |
| 20260906033852 | 72 | 38 | 0.0 | 0.0 | 0.00 | 0.00 | 0.00 | 45 | 1021.6 |
| 20260906033351 | 72 | 39 | 0.0 | 0.0 | 0.00 | 0.00 | 0.00 | 45 | 1021.4 |
| 20260906032847 | 72 | 39 | 0.0 | 0.0 | 0.00 | 0.00 | 0.00 | 46 | 1021.4 |
| 20260906032343 | 72 | 39 | 0.0 | 0.0 | 0.00 | 0.00 | 0.00 | 45 | 1021.5 |
| 20260906031838 | 73 | 36 | 0.0 | 0.9 | 0.00 | 0.00 | 0.00 | 44 | 1021.4 |
| 20260906031333 | 72 | 36 | 0.0 | 0.0 | 0.00 | 0.00 | 0.00 | 46 | 1021.2 |
| 20260906030833 | 72 | 33 | 0.0 | 0.0 | 0.00 | 0.00 | 0.00 | 45 | 1021.1 |
| 20260906030329 | 73 | 41 | 0.0 | 0.0 | 0.00 | 0.00 | 0.00 | 44 | 1021.2 |
| 20260906025823 | 73 | 37 | 0.0 | 0.0 | 0.00 | 0.00 | 0.00 | 43 | 1021.1 |
| 20260906025317 | 73 | 34 | 0.0 | 0.0 | 0.00 | 0.00 | 0.00 | 43 | 1021.0 |
| 20260906024816 | 73 | 39 | 0.0 | 0.0 | 0.00 | 0.00 | 0.00 | 43 | 1020.8 |
| 20260906024315 | 74 | 39 | 0.0 | 0.0 | 0.00 | 0.00 | 0.00 | 42 | 1020.8 |
| 20260906023811 | 75 | 38 | 0.0 | 0.0 | 0.00 | 0.00 | 0.00 | 40 | 1020.4 |
| 20260906023306 | 76 | 42 | 0.0 | 0.0 | 0.00 | 0.00 | 0.00 | 40 | 1020.5 |
| 20260906022802 | 76 | 48 | 0.9 | 0.9 | 0.00 | 0.00 | 0.00 | 39 | 1020.5 |
| 20260906022257 | 76 | 40 | 0.0 | 0.0 | 0.00 | 0.00 | 0.00 | 38 | 1020.5 |
| 20260906021752 | 77 | 39 | 0.0 | 0.0 | 0.00 | 0.00 | 0.00 | 37 | 1020.5 |
| 20260906021246 | 79 | 39 | 0.0 | 0.0 | 0.00 | 0.00 | 0.00 | 35 | 1020.4 |
| 20260906020741 | 80 | 39 | 0.0 | 0.0 | 0.00 | 0.00 | 0.00 | 34 | 1020.2 |
| 20260906020241 | 80 | 34 | 0.0 | 0.0 | 0.00 | 0.00 | 0.00 | 32 | 1020.2 |
| 20260906015735 | 81 | 16 | 0.9 | 1.7 | 0.00 | 0.00 | 0.00 | 32 | 1020.2 |
| 20260906015234 | 81 | 35 | 0.9 | 0.9 | 0.00 | 0.00 | 0.00 | 32 | 1020.2 |
| 20260906014729 | 81 | 36 | 0.9 | 0.9 | 0.00 | 0.00 | 0.00 | 32 | 1020.3 |
| 20260906014225 | 81 | 14 | 0.9 | 1.7 | 0.00 | 0.00 | 0.00 | 32 | 1020.2 |
| 20260906013721 | 82 | 32 | 0.0 | 0.9 | 0.00 | 0.00 | 0.00 | 32 | 1020.1 |
| 20260906013220 | 82 | 15 | 1.7 | 1.7 | 0.00 | 0.00 | 0.00 | 32 | 1019.9 |
| 20260906012715 | 83 | 20 | 1.7 | 1.7 | 0.00 | 0.00 | 0.00 | 31 | 1020.1 |
| 20260906012210 | 83 | 35 | 1.7 | 1.7 | 0.00 | 0.00 | 0.00 | 31 | 1020.1 |
| 20260906011705 | 82 | 28 | 0.9 | 0.9 | 0.00 | 0.00 | 0.00 | 31 | 1020.1 |
| 20260906011200 | 82 | 32 | 0.9 | 1.7 | 0.00 | 0.00 | 0.00 | 31 | 1019.9 |
| 20260906010655 | 82 | 43 | 0.0 | 0.0 | 0.00 | 0.00 | 0.00 | 33 | 1020.1 |
| 20260906010152 | 81 | 38 | 0.0 | 0.0 | 0.00 | 0.00 | 0.00 | 33 | 1019.9 |
| 20260906005651 | 81 | 38 | 0.0 | 0.0 | 0.00 | 0.00 | 0.00 | 34 | 1020.1 |
| 20260906005150 | 82 | 34 | 0.0 | 0.0 | 0.00 | 0.00 | 0.00 | 35 | 1020.3 |
| 20260906004649 | 82 | 36 | 0.0 | 0.0 | 0.00 | 0.00 | 0.00 | 34 | 1020.2 |
| 20260906004144 | 83 | 36 | 0.0 | 0.0 | 0.00 | 0.00 | 0.00 | 33 | 1019.8 |
| 20260906003640 | 83 | 36 | 0.0 | 0.0 | 0.00 | 0.00 | 0.00 | 32 | 1020.1 |
| 20260906003136 | 84 | 36 | 0.0 | 0.0 | 0.00 | 0.00 | 0.00 | 32 | 1020.1 |
| 20260906002630 | 84 | 37 | 0.0 | 0.0 | 0.00 | 0.00 | 0.00 | 33 | 1020.1 |
| 20260906002125 | 85 | 40 | 0.0 | 0.0 | 0.00 | 0.00 | 0.00 | 30 | 1019.9 |
| 20260906001620 | 86 | 40 | 0.0 | 0.0 | 0.00 | 0.00 | 0.00 | 31 | 1020.2 |
| 20260906001120 | 86 | 38 | 0.0 | 0.0 | 0.00 | 0.00 | 0.00 | 30 | 1019.9 |
| 20260906000616 | 87 | 37 | 0.0 | 0.0 | 0.00 | 0.00 | 0.00 | 29 | 1020.1 |
| 20260906000111 | 87 | 39 | 0.0 | 0.0 | 0.00 | 0.00 | 0.00 | 29 | 1019.8 |
| 20260905235610 | 89 | 21 | 0.9 | 0.9 | 0.00 | 0.00 | 0.00 | 27 | 1019.8 |
| 20260905235105 | 90 | 40 | 0.0 | 0.0 | 0.00 | 0.00 | 0.00 | 27 | 1019.9 |
| 20260905234601 | 91 | 28 | 0.0 | 0.9 | 0.00 | 0.00 | 0.00 | 25 | 1019.7 |
| 20260905234056 | 93 | 33 | 0.0 | 0.0 | 0.00 | 0.00 | 0.00 | 25 | 1019.9 |
| 20260905233556 | 93 | 37 | 0.0 | 0.0 | 0.00 | 0.00 | 0.00 | 25 | 1019.8 |
| 20260905233050 | 92 | 29 | 0.9 | 0.9 | 0.00 | 0.00 | 0.00 | 23 | 1019.7 |
| 20260905232546 | 92 | 24 | 0.9 | 0.9 | 0.00 | 0.00 | 0.00 | 25 | 1019.6 |
| 20260905232041 | 92 | 34 | 0.9 | 0.9 | 0.00 | 0.00 | 0.00 | 23 | 1019.8 |
| 20260905231536 | 93 | 33 | 0.0 | 0.0 | 0.00 | 0.00 | 0.00 | 25 | 1019.8 |
| 20260905231033 | 94 | 11 | 0.9 | 0.9 | 0.00 | 0.00 | 0.00 | 25 | 1019.7 |
| 20260905230532 | 93 | 34 | 0.9 | 0.9 | 0.00 | 0.00 | 0.00 | 27 | 1019.7 |
| 20260905230031 | 93 | 37 | 0.0 | 0.0 | 0.00 | 0.00 | 0.00 | 28 | 1019.7 |
| 20260905225525 | 94 | 354 | 0.9 | 0.9 | 0.00 | 0.00 | 0.00 | 22 | 1019.7 |
| 20260905225020 | 93 | 43 | 0.9 | 0.9 | 0.00 | 0.00 | 0.00 | 24 | 1019.7 |
| 20260905224515 | 92 | 54 | 1.7 | 2.6 | 0.00 | 0.00 | 0.00 | 23 | 1019.8 |
| 20260905224014 | 91 | 39 | 0.0 | 0.0 | 0.00 | 0.00 | 0.00 | 26 | 1019.7 |
| 20260905223513 | 90 | 51 | 0.0 | 0.9 | 0.00 | 0.00 | 0.00 | 25 | 1019.8 |
| 20260905223008 | 89 | 36 | 0.0 | 0.0 | 0.00 | 0.00 | 0.00 | 25 | 1019.8 |